sensor_id;sensor_type;location;lat;lon;timestamp;P1;durP1;ratioP1;P2;durP2;ratioP2
11439;SDS011;5776;51.814;4.510;2022-12-01T00:00:35;32.23;;;19.17;;
11439;SDS011;5776;51.814;4.510;2022-12-01T00:03:01;31.67;;;19.47;;
11439;SDS011;5776;51.814;4.510;2022-12-01T00:05:27;25.93;;;15.43;;
11439;SDS011;5776;51.814;4.510;2022-12-01T00:07:53;27.67;;;15.83;;
11439;SDS011;5776;51.814;4.510;2022-12-01T00:10:19;24.90;;;15.23;;
11439;SDS011;5776;51.814;4.510;2022-12-01T00:12:53;25.53;;;16.07;;
11439;SDS011;5776;51.814;4.510;2022-12-01T00:15:20;29.10;;;16.80;;
11439;SDS011;5776;51.814;4.510;2022-12-01T00:17:46;24.03;;;13.63;;
11439;SDS011;5776;51.814;4.510;2022-12-01T00:20:14;24.10;;;15.07;;
11439;SDS011;5776;51.814;4.510;2022-12-01T00:22:41;29.20;;;17.53;;
11439;SDS011;5776;51.814;4.510;2022-12-01T00:25:08;35.43;;;18.83;;
11439;SDS011;5776;51.814;4.510;2022-12-01T00:27:36;28.57;;;16.97;;
11439;SDS011;5776;51.814;4.510;2022-12-01T00:30:03;28.77;;;17.03;;
11439;SDS011;5776;51.814;4.510;2022-12-01T00:32:30;31.43;;;17.80;;
11439;SDS011;5776;51.814;4.510;2022-12-01T00:34:56;24.90;;;14.20;;
11439;SDS011;5776;51.814;4.510;2022-12-01T00:37:22;24.57;;;15.37;;
11439;SDS011;5776;51.814;4.510;2022-12-01T00:39:48;34.20;;;18.47;;
11439;SDS011;5776;51.814;4.510;2022-12-01T00:42:14;32.73;;;17.67;;
11439;SDS011;5776;51.814;4.510;2022-12-01T00:44:40;28.50;;;17.50;;
11439;SDS011;5776;51.814;4.510;2022-12-01T00:47:06;29.57;;;17.27;;
11439;SDS011;5776;51.814;4.510;2022-12-01T00:49:31;28.50;;;15.67;;
11439;SDS011;5776;51.814;4.510;2022-12-01T00:51:57;22.07;;;13.03;;
11439;SDS011;5776;51.814;4.510;2022-12-01T00:54:23;30.17;;;16.60;;
11439;SDS011;5776;51.814;4.510;2022-12-01T00:56:49;30.97;;;17.43;;
11439;SDS011;5776;51.814;4.510;2022-12-01T00:59:15;28.47;;;16.80;;
11439;SDS011;5776;51.814;4.510;2022-12-01T01:01:41;27.80;;;16.27;;
11439;SDS011;5776;51.814;4.510;2022-12-01T01:04:07;30.43;;;17.10;;
11439;SDS011;5776;51.814;4.510;2022-12-01T01:06:33;27.87;;;16.97;;
11439;SDS011;5776;51.814;4.510;2022-12-01T01:08:59;29.63;;;16.30;;
11439;SDS011;5776;51.814;4.510;2022-12-01T01:11:25;32.70;;;18.13;;
11439;SDS011;5776;51.814;4.510;2022-12-01T01:13:51;28.60;;;16.00;;
11439;SDS011;5776;51.814;4.510;2022-12-01T01:16:20;26.30;;;16.17;;
11439;SDS011;5776;51.814;4.510;2022-12-01T01:18:46;25.73;;;15.23;;
11439;SDS011;5776;51.814;4.510;2022-12-01T01:21:14;27.27;;;16.53;;
11439;SDS011;5776;51.814;4.510;2022-12-01T01:23:41;32.80;;;18.60;;
11439;SDS011;5776;51.814;4.510;2022-12-01T01:26:09;24.50;;;14.23;;
11439;SDS011;5776;51.814;4.510;2022-12-01T01:28:37;29.17;;;17.50;;
11439;SDS011;5776;51.814;4.510;2022-12-01T01:31:06;22.83;;;14.43;;
11439;SDS011;5776;51.814;4.510;2022-12-01T01:33:33;28.50;;;16.33;;
11439;SDS011;5776;51.814;4.510;2022-12-01T01:36:00;30.67;;;18.47;;
11439;SDS011;5776;51.814;4.510;2022-12-01T01:38:27;34.67;;;19.30;;
11439;SDS011;5776;51.814;4.510;2022-12-01T01:40:54;19.10;;;11.87;;
11439;SDS011;5776;51.814;4.510;2022-12-01T01:46:37;33.40;;;18.93;;
11439;SDS011;5776;51.814;4.510;2022-12-01T01:49:05;25.23;;;14.40;;
11439;SDS011;5776;51.814;4.510;2022-12-01T01:54:21;30.90;;;16.03;;
11439;SDS011;5776;51.814;4.510;2022-12-01T01:56:50;27.03;;;15.20;;
11439;SDS011;5776;51.814;4.510;2022-12-01T01:59:20;26.13;;;15.27;;
11439;SDS011;5776;51.814;4.510;2022-12-01T02:01:55;25.63;;;14.97;;
11439;SDS011;5776;51.814;4.510;2022-12-01T02:04:28;25.30;;;15.00;;
11439;SDS011;5776;51.814;4.510;2022-12-01T02:06:55;34.87;;;18.97;;
11439;SDS011;5776;51.814;4.510;2022-12-01T02:09:20;39.50;;;23.20;;
11439;SDS011;5776;51.814;4.510;2022-12-01T02:17:37;34.87;;;19.57;;
11439;SDS011;5776;51.814;4.510;2022-12-01T02:20:28;42.93;;;22.50;;
11439;SDS011;5776;51.814;4.510;2022-12-01T02:23:27;32.33;;;18.10;;
11439;SDS011;5776;51.814;4.510;2022-12-01T02:26:26;35.83;;;20.50;;
11439;SDS011;5776;51.814;4.510;2022-12-01T02:29:07;39.40;;;21.10;;
11439;SDS011;5776;51.814;4.510;2022-12-01T02:34:29;33.90;;;19.03;;
11439;SDS011;5776;51.814;4.510;2022-12-01T02:37:11;43.40;;;22.43;;
11439;SDS011;5776;51.814;4.510;2022-12-01T02:40:10;36.97;;;21.30;;
11439;SDS011;5776;51.814;4.510;2022-12-01T02:42:38;42.67;;;23.10;;
11439;SDS011;5776;51.814;4.510;2022-12-01T02:45:29;44.83;;;22.90;;
11439;SDS011;5776;51.814;4.510;2022-12-01T02:48:00;38.57;;;21.43;;
11439;SDS011;5776;51.814;4.510;2022-12-01T02:50:28;43.30;;;22.00;;
11439;SDS011;5776;51.814;4.510;2022-12-01T02:52:57;43.07;;;21.30;;
11439;SDS011;5776;51.814;4.510;2022-12-01T02:55:25;38.57;;;21.73;;
11439;SDS011;5776;51.814;4.510;2022-12-01T02:57:51;42.80;;;21.83;;
11439;SDS011;5776;51.814;4.510;2022-12-01T03:00:17;42.37;;;22.07;;
11439;SDS011;5776;51.814;4.510;2022-12-01T03:02:47;33.63;;;18.57;;
11439;SDS011;5776;51.814;4.510;2022-12-01T03:05:51;46.20;;;22.73;;
11439;SDS011;5776;51.814;4.510;2022-12-01T03:11:19;39.27;;;19.43;;
11439;SDS011;5776;51.814;4.510;2022-12-01T03:13:56;39.40;;;21.60;;
11439;SDS011;5776;51.814;4.510;2022-12-01T03:16:46;38.50;;;21.43;;
11439;SDS011;5776;51.814;4.510;2022-12-01T03:22:03;49.07;;;24.77;;
11439;SDS011;5776;51.814;4.510;2022-12-01T03:24:35;47.03;;;24.67;;
11439;SDS011;5776;51.814;4.510;2022-12-01T03:27:05;48.57;;;24.30;;
11439;SDS011;5776;51.814;4.510;2022-12-01T03:29:44;47.47;;;24.83;;
11439;SDS011;5776;51.814;4.510;2022-12-01T03:32:13;45.57;;;23.77;;
11439;SDS011;5776;51.814;4.510;2022-12-01T03:34:51;49.47;;;24.63;;
11439;SDS011;5776;51.814;4.510;2022-12-01T03:39:56;45.43;;;23.37;;
11439;SDS011;5776;51.814;4.510;2022-12-01T03:42:25;43.23;;;24.40;;
11439;SDS011;5776;51.814;4.510;2022-12-01T03:44:56;45.73;;;24.07;;
11439;SDS011;5776;51.814;4.510;2022-12-01T03:47:28;51.63;;;25.10;;
11439;SDS011;5776;51.814;4.510;2022-12-01T03:49:57;40.90;;;22.50;;
11439;SDS011;5776;51.814;4.510;2022-12-01T03:52:38;45.13;;;23.20;;
11439;SDS011;5776;51.814;4.510;2022-12-01T03:55:31;49.40;;;25.27;;
11439;SDS011;5776;51.814;4.510;2022-12-01T03:58:05;32.17;;;18.10;;
11439;SDS011;5776;51.814;4.510;2022-12-01T04:00:43;44.67;;;23.70;;
11439;SDS011;5776;51.814;4.510;2022-12-01T04:03:18;42.27;;;21.33;;
11439;SDS011;5776;51.814;4.510;2022-12-01T04:05:46;46.23;;;23.30;;
11439;SDS011;5776;51.814;4.510;2022-12-01T04:08:13;45.60;;;22.83;;
11439;SDS011;5776;51.814;4.510;2022-12-01T04:10:38;44.23;;;23.07;;
11439;SDS011;5776;51.814;4.510;2022-12-01T04:13:04;45.33;;;24.17;;
11439;SDS011;5776;51.814;4.510;2022-12-01T04:15:36;48.40;;;24.27;;
11439;SDS011;5776;51.814;4.510;2022-12-01T04:18:02;50.27;;;25.27;;
11439;SDS011;5776;51.814;4.510;2022-12-01T04:20:28;52.70;;;25.90;;
11439;SDS011;5776;51.814;4.510;2022-12-01T04:22:54;49.23;;;24.97;;
11439;SDS011;5776;51.814;4.510;2022-12-01T04:25:20;49.03;;;25.53;;
11439;SDS011;5776;51.814;4.510;2022-12-01T04:27:46;46.37;;;23.10;;
11439;SDS011;5776;51.814;4.510;2022-12-01T04:30:12;51.97;;;25.27;;
11439;SDS011;5776;51.814;4.510;2022-12-01T04:32:39;45.40;;;22.00;;
11439;SDS011;5776;51.814;4.510;2022-12-01T04:35:07;41.50;;;20.70;;
11439;SDS011;5776;51.814;4.510;2022-12-01T04:37:35;44.33;;;23.60;;
11439;SDS011;5776;51.814;4.510;2022-12-01T04:40:01;38.83;;;20.93;;
11439;SDS011;5776;51.814;4.510;2022-12-01T04:42:28;46.70;;;23.53;;
11439;SDS011;5776;51.814;4.510;2022-12-01T04:44:54;44.77;;;23.60;;
11439;SDS011;5776;51.814;4.510;2022-12-01T04:47:20;36.23;;;20.10;;
11439;SDS011;5776;51.814;4.510;2022-12-01T04:49:46;50.90;;;24.90;;
11439;SDS011;5776;51.814;4.510;2022-12-01T04:52:12;39.97;;;18.10;;
11439;SDS011;5776;51.814;4.510;2022-12-01T04:54:38;37.73;;;18.50;;
11439;SDS011;5776;51.814;4.510;2022-12-01T04:57:04;34.90;;;16.77;;
11439;SDS011;5776;51.814;4.510;2022-12-01T04:59:30;38.57;;;18.07;;
11439;SDS011;5776;51.814;4.510;2022-12-01T05:01:55;37.43;;;16.97;;
11439;SDS011;5776;51.814;4.510;2022-12-01T05:04:21;43.07;;;19.07;;
11439;SDS011;5776;51.814;4.510;2022-12-01T05:06:47;47.77;;;20.40;;
11439;SDS011;5776;51.814;4.510;2022-12-01T05:09:14;37.83;;;18.63;;
11439;SDS011;5776;51.814;4.510;2022-12-01T05:11:41;43.33;;;20.30;;
11439;SDS011;5776;51.814;4.510;2022-12-01T05:14:07;39.40;;;18.33;;
11439;SDS011;5776;51.814;4.510;2022-12-01T05:16:33;41.73;;;18.90;;
11439;SDS011;5776;51.814;4.510;2022-12-01T05:19:00;39.77;;;17.63;;
11439;SDS011;5776;51.814;4.510;2022-12-01T05:21:47;37.30;;;16.03;;
11439;SDS011;5776;51.814;4.510;2022-12-01T05:24:15;27.00;;;15.10;;
11439;SDS011;5776;51.814;4.510;2022-12-01T05:26:43;40.47;;;18.47;;
11439;SDS011;5776;51.814;4.510;2022-12-01T05:29:09;37.87;;;16.63;;
11439;SDS011;5776;51.814;4.510;2022-12-01T05:31:36;34.93;;;17.30;;
11439;SDS011;5776;51.814;4.510;2022-12-01T05:34:02;41.17;;;18.00;;
11439;SDS011;5776;51.814;4.510;2022-12-01T05:36:28;44.00;;;19.53;;
11439;SDS011;5776;51.814;4.510;2022-12-01T05:38:54;33.17;;;16.37;;
11439;SDS011;5776;51.814;4.510;2022-12-01T05:41:20;41.40;;;18.43;;
11439;SDS011;5776;51.814;4.510;2022-12-01T05:43:46;36.63;;;16.57;;
11439;SDS011;5776;51.814;4.510;2022-12-01T05:46:12;39.30;;;18.13;;
11439;SDS011;5776;51.814;4.510;2022-12-01T05:48:38;40.93;;;17.93;;
11439;SDS011;5776;51.814;4.510;2022-12-01T05:51:11;41.73;;;19.07;;
11439;SDS011;5776;51.814;4.510;2022-12-01T05:53:38;44.73;;;18.27;;
11439;SDS011;5776;51.814;4.510;2022-12-01T05:56:05;39.70;;;17.30;;
11439;SDS011;5776;51.814;4.510;2022-12-01T05:58:32;29.17;;;14.40;;
11439;SDS011;5776;51.814;4.510;2022-12-01T06:00:58;42.53;;;19.30;;
11439;SDS011;5776;51.814;4.510;2022-12-01T06:03:24;40.80;;;17.20;;
11439;SDS011;5776;51.814;4.510;2022-12-01T06:05:50;38.03;;;17.37;;
11439;SDS011;5776;51.814;4.510;2022-12-01T06:08:16;42.50;;;19.87;;
11439;SDS011;5776;51.814;4.510;2022-12-01T06:10:42;44.57;;;19.50;;
11439;SDS011;5776;51.814;4.510;2022-12-01T06:13:08;42.53;;;19.20;;
11439;SDS011;5776;51.814;4.510;2022-12-01T06:15:35;45.67;;;19.50;;
11439;SDS011;5776;51.814;4.510;2022-12-01T06:18:00;36.87;;;17.97;;
11439;SDS011;5776;51.814;4.510;2022-12-01T06:20:26;39.13;;;17.47;;
11439;SDS011;5776;51.814;4.510;2022-12-01T06:22:52;37.30;;;17.93;;
11439;SDS011;5776;51.814;4.510;2022-12-01T06:25:18;31.33;;;15.60;;
11439;SDS011;5776;51.814;4.510;2022-12-01T06:27:44;36.37;;;17.00;;
11439;SDS011;5776;51.814;4.510;2022-12-01T06:30:11;43.10;;;20.90;;
11439;SDS011;5776;51.814;4.510;2022-12-01T06:32:37;45.77;;;21.57;;
11439;SDS011;5776;51.814;4.510;2022-12-01T06:35:03;40.27;;;19.53;;
11439;SDS011;5776;51.814;4.510;2022-12-01T06:37:29;43.83;;;20.70;;
11439;SDS011;5776;51.814;4.510;2022-12-01T06:39:55;46.90;;;22.47;;
11439;SDS011;5776;51.814;4.510;2022-12-01T06:42:21;47.00;;;20.73;;
11439;SDS011;5776;51.814;4.510;2022-12-01T06:44:47;48.23;;;22.97;;
11439;SDS011;5776;51.814;4.510;2022-12-01T06:47:13;39.30;;;19.80;;
11439;SDS011;5776;51.814;4.510;2022-12-01T06:49:40;45.70;;;21.30;;
11439;SDS011;5776;51.814;4.510;2022-12-01T06:52:06;41.27;;;20.43;;
11439;SDS011;5776;51.814;4.510;2022-12-01T06:54:32;45.00;;;21.10;;
11439;SDS011;5776;51.814;4.510;2022-12-01T06:56:59;36.90;;;18.20;;
11439;SDS011;5776;51.814;4.510;2022-12-01T06:59:24;37.10;;;17.83;;
11439;SDS011;5776;51.814;4.510;2022-12-01T07:01:51;41.93;;;20.10;;
11439;SDS011;5776;51.814;4.510;2022-12-01T07:04:16;40.00;;;19.33;;
11439;SDS011;5776;51.814;4.510;2022-12-01T07:06:42;45.80;;;20.37;;
11439;SDS011;5776;51.814;4.510;2022-12-01T07:09:08;44.60;;;21.23;;
11439;SDS011;5776;51.814;4.510;2022-12-01T07:11:34;42.40;;;20.33;;
11439;SDS011;5776;51.814;4.510;2022-12-01T07:14:01;44.80;;;20.80;;
11439;SDS011;5776;51.814;4.510;2022-12-01T07:16:27;42.17;;;21.33;;
11439;SDS011;5776;51.814;4.510;2022-12-01T07:18:53;37.97;;;20.20;;
11439;SDS011;5776;51.814;4.510;2022-12-01T07:21:20;39.13;;;19.50;;
11439;SDS011;5776;51.814;4.510;2022-12-01T07:23:46;42.47;;;20.80;;
11439;SDS011;5776;51.814;4.510;2022-12-01T07:26:13;39.43;;;19.83;;
11439;SDS011;5776;51.814;4.510;2022-12-01T07:28:43;45.37;;;20.37;;
11439;SDS011;5776;51.814;4.510;2022-12-01T07:31:10;45.00;;;21.20;;
11439;SDS011;5776;51.814;4.510;2022-12-01T07:33:42;41.53;;;20.47;;
11439;SDS011;5776;51.814;4.510;2022-12-01T07:36:09;42.80;;;20.60;;
11439;SDS011;5776;51.814;4.510;2022-12-01T07:38:36;40.23;;;19.90;;
11439;SDS011;5776;51.814;4.510;2022-12-01T07:41:13;46.20;;;21.83;;
11439;SDS011;5776;51.814;4.510;2022-12-01T07:43:41;42.77;;;20.93;;
11439;SDS011;5776;51.814;4.510;2022-12-01T07:46:14;52.63;;;23.77;;
11439;SDS011;5776;51.814;4.510;2022-12-01T07:48:41;39.43;;;19.17;;
11439;SDS011;5776;51.814;4.510;2022-12-01T07:51:08;44.50;;;21.63;;
11439;SDS011;5776;51.814;4.510;2022-12-01T07:53:36;35.97;;;17.90;;
11439;SDS011;5776;51.814;4.510;2022-12-01T07:56:03;51.83;;;24.23;;
11439;SDS011;5776;51.814;4.510;2022-12-01T07:58:30;36.90;;;18.97;;
11439;SDS011;5776;51.814;4.510;2022-12-01T08:00:56;43.87;;;21.70;;
11439;SDS011;5776;51.814;4.510;2022-12-01T08:03:22;47.00;;;22.43;;
11439;SDS011;5776;51.814;4.510;2022-12-01T08:05:54;44.57;;;22.43;;
11439;SDS011;5776;51.814;4.510;2022-12-01T08:08:24;47.70;;;22.57;;
11439;SDS011;5776;51.814;4.510;2022-12-01T08:10:50;46.03;;;21.87;;
11439;SDS011;5776;51.814;4.510;2022-12-01T08:13:17;43.73;;;22.93;;
11439;SDS011;5776;51.814;4.510;2022-12-01T08:15:44;49.63;;;24.83;;
11439;SDS011;5776;51.814;4.510;2022-12-01T08:18:10;51.10;;;24.17;;
11439;SDS011;5776;51.814;4.510;2022-12-01T08:20:36;39.03;;;20.43;;
11439;SDS011;5776;51.814;4.510;2022-12-01T08:23:02;39.37;;;19.70;;
11439;SDS011;5776;51.814;4.510;2022-12-01T08:25:28;40.37;;;20.43;;
11439;SDS011;5776;51.814;4.510;2022-12-01T08:27:55;46.17;;;22.93;;
11439;SDS011;5776;51.814;4.510;2022-12-01T08:30:21;45.87;;;22.57;;
11439;SDS011;5776;51.814;4.510;2022-12-01T08:32:47;44.53;;;22.23;;
11439;SDS011;5776;51.814;4.510;2022-12-01T08:35:13;38.13;;;19.87;;
11439;SDS011;5776;51.814;4.510;2022-12-01T08:37:39;43.37;;;20.67;;
11439;SDS011;5776;51.814;4.510;2022-12-01T08:40:06;48.30;;;21.90;;
11439;SDS011;5776;51.814;4.510;2022-12-01T08:42:32;41.63;;;21.77;;
11439;SDS011;5776;51.814;4.510;2022-12-01T08:44:58;45.17;;;23.07;;
11439;SDS011;5776;51.814;4.510;2022-12-01T08:47:26;47.63;;;22.27;;
11439;SDS011;5776;51.814;4.510;2022-12-01T08:49:53;46.30;;;22.90;;
11439;SDS011;5776;51.814;4.510;2022-12-01T08:52:20;42.03;;;21.87;;
11439;SDS011;5776;51.814;4.510;2022-12-01T08:54:46;48.23;;;22.77;;
11439;SDS011;5776;51.814;4.510;2022-12-01T08:57:12;47.80;;;22.90;;
11439;SDS011;5776;51.814;4.510;2022-12-01T08:59:38;47.87;;;23.63;;
11439;SDS011;5776;51.814;4.510;2022-12-01T09:02:05;46.97;;;25.07;;
11439;SDS011;5776;51.814;4.510;2022-12-01T09:04:31;42.83;;;18.37;;
11439;SDS011;5776;51.814;4.510;2022-12-01T09:06:57;44.23;;;19.93;;
11439;SDS011;5776;51.814;4.510;2022-12-01T09:09:24;46.57;;;22.13;;
11439;SDS011;5776;51.814;4.510;2022-12-01T09:11:53;47.87;;;23.07;;
11439;SDS011;5776;51.814;4.510;2022-12-01T09:14:20;39.20;;;20.67;;
11439;SDS011;5776;51.814;4.510;2022-12-01T09:16:47;48.00;;;21.97;;
11439;SDS011;5776;51.814;4.510;2022-12-01T09:19:15;46.93;;;20.23;;
11439;SDS011;5776;51.814;4.510;2022-12-01T09:21:42;46.90;;;22.07;;
11439;SDS011;5776;51.814;4.510;2022-12-01T09:24:11;42.97;;;21.87;;
11439;SDS011;5776;51.814;4.510;2022-12-01T09:26:37;43.37;;;19.80;;
11439;SDS011;5776;51.814;4.510;2022-12-01T09:29:04;40.67;;;19.80;;
11439;SDS011;5776;51.814;4.510;2022-12-01T09:31:32;41.50;;;21.03;;
11439;SDS011;5776;51.814;4.510;2022-12-01T09:34:00;45.53;;;22.20;;
11439;SDS011;5776;51.814;4.510;2022-12-01T09:36:32;40.00;;;19.47;;
11439;SDS011;5776;51.814;4.510;2022-12-01T09:39:00;49.03;;;22.10;;
11439;SDS011;5776;51.814;4.510;2022-12-01T09:44:30;48.20;;;22.60;;
11439;SDS011;5776;51.814;4.510;2022-12-01T09:52:33;43.50;;;21.30;;
11439;SDS011;5776;51.814;4.510;2022-12-01T09:55:15;45.03;;;21.27;;
11439;SDS011;5776;51.814;4.510;2022-12-01T09:57:43;39.50;;;20.67;;
11439;SDS011;5776;51.814;4.510;2022-12-01T10:00:14;40.53;;;19.43;;
11439;SDS011;5776;51.814;4.510;2022-12-01T10:02:46;36.33;;;18.57;;
11439;SDS011;5776;51.814;4.510;2022-12-01T10:05:20;44.40;;;21.83;;
11439;SDS011;5776;51.814;4.510;2022-12-01T10:10:24;40.90;;;20.37;;
11439;SDS011;5776;51.814;4.510;2022-12-01T10:12:53;42.97;;;20.60;;
11439;SDS011;5776;51.814;4.510;2022-12-01T10:21:04;43.13;;;19.73;;
11439;SDS011;5776;51.814;4.510;2022-12-01T10:26:13;40.37;;;19.37;;
11439;SDS011;5776;51.814;4.510;2022-12-01T10:34:26;39.83;;;19.53;;
11439;SDS011;5776;51.814;4.510;2022-12-01T10:36:53;43.03;;;21.60;;
11439;SDS011;5776;51.814;4.510;2022-12-01T10:39:38;35.17;;;16.33;;
11439;SDS011;5776;51.814;4.510;2022-12-01T10:42:18;44.03;;;20.83;;
11439;SDS011;5776;51.814;4.510;2022-12-01T10:44:54;44.53;;;21.37;;
11439;SDS011;5776;51.814;4.510;2022-12-01T10:47:22;41.77;;;20.60;;
11439;SDS011;5776;51.814;4.510;2022-12-01T10:49:49;35.10;;;16.83;;
11439;SDS011;5776;51.814;4.510;2022-12-01T10:55:02;39.10;;;18.73;;
11439;SDS011;5776;51.814;4.510;2022-12-01T10:57:55;43.40;;;20.77;;
11439;SDS011;5776;51.814;4.510;2022-12-01T11:00:25;36.80;;;20.03;;
11439;SDS011;5776;51.814;4.510;2022-12-01T11:03:01;35.67;;;18.27;;
11439;SDS011;5776;51.814;4.510;2022-12-01T11:05:29;38.70;;;18.20;;
11439;SDS011;5776;51.814;4.510;2022-12-01T11:07:58;37.40;;;18.50;;
11439;SDS011;5776;51.814;4.510;2022-12-01T11:10:25;36.20;;;18.90;;
11439;SDS011;5776;51.814;4.510;2022-12-01T11:15:26;38.27;;;20.23;;
11439;SDS011;5776;51.814;4.510;2022-12-01T11:18:01;40.50;;;19.73;;
11439;SDS011;5776;51.814;4.510;2022-12-01T11:20:44;33.97;;;18.50;;
11439;SDS011;5776;51.814;4.510;2022-12-01T11:25:59;35.47;;;20.10;;
11439;SDS011;5776;51.814;4.510;2022-12-01T11:28:35;31.20;;;16.67;;
11439;SDS011;5776;51.814;4.510;2022-12-01T11:31:08;36.87;;;19.27;;
11439;SDS011;5776;51.814;4.510;2022-12-01T11:33:43;36.03;;;18.67;;
11439;SDS011;5776;51.814;4.510;2022-12-01T11:36:47;31.17;;;15.13;;
11439;SDS011;5776;51.814;4.510;2022-12-01T11:39:21;35.17;;;19.13;;
11439;SDS011;5776;51.814;4.510;2022-12-01T11:44:39;31.93;;;16.57;;
11439;SDS011;5776;51.814;4.510;2022-12-01T11:47:13;31.17;;;16.90;;
11439;SDS011;5776;51.814;4.510;2022-12-01T11:49:46;28.80;;;17.00;;
11439;SDS011;5776;51.814;4.510;2022-12-01T11:57:45;32.60;;;17.70;;
11439;SDS011;5776;51.814;4.510;2022-12-01T12:00:15;34.23;;;19.10;;
11439;SDS011;5776;51.814;4.510;2022-12-01T12:03:31;36.43;;;18.70;;
11439;SDS011;5776;51.814;4.510;2022-12-01T12:05:36;35.07;;;18.03;;
11439;SDS011;5776;51.814;4.510;2022-12-01T12:08:29;33.07;;;18.10;;
11439;SDS011;5776;51.814;4.510;2022-12-01T12:11:16;32.13;;;18.00;;
11439;SDS011;5776;51.814;4.510;2022-12-01T12:14:03;30.03;;;17.17;;
11439;SDS011;5776;51.814;4.510;2022-12-01T12:17:02;36.03;;;18.23;;
11439;SDS011;5776;51.814;4.510;2022-12-01T12:22:35;31.07;;;14.73;;
11439;SDS011;5776;51.814;4.510;2022-12-01T12:25:26;34.60;;;17.40;;
11439;SDS011;5776;51.814;4.510;2022-12-01T12:39:06;26.27;;;14.17;;
11439;SDS011;5776;51.814;4.510;2022-12-01T12:41:55;34.13;;;17.40;;
11439;SDS011;5776;51.814;4.510;2022-12-01T12:47:32;27.10;;;14.77;;
11439;SDS011;5776;51.814;4.510;2022-12-01T12:53:04;29.90;;;14.93;;
11439;SDS011;5776;51.814;4.510;2022-12-01T12:55:39;33.13;;;15.60;;
11439;SDS011;5776;51.814;4.510;2022-12-01T12:58:15;31.77;;;17.07;;
11439;SDS011;5776;51.814;4.510;2022-12-01T13:00:53;31.30;;;15.20;;
11439;SDS011;5776;51.814;4.510;2022-12-01T13:06:41;38.03;;;20.20;;
11439;SDS011;5776;51.814;4.510;2022-12-01T13:09:13;29.27;;;15.17;;
11439;SDS011;5776;51.814;4.510;2022-12-01T13:11:50;38.73;;;18.63;;
11439;SDS011;5776;51.814;4.510;2022-12-01T13:14:27;31.33;;;16.50;;
11439;SDS011;5776;51.814;4.510;2022-12-01T13:17:03;29.83;;;16.67;;
11439;SDS011;5776;51.814;4.510;2022-12-01T13:19:45;32.13;;;17.00;;
11439;SDS011;5776;51.814;4.510;2022-12-01T13:22:13;28.17;;;14.97;;
11439;SDS011;5776;51.814;4.510;2022-12-01T13:24:40;28.73;;;14.80;;
11439;SDS011;5776;51.814;4.510;2022-12-01T13:29:36;31.87;;;17.10;;
11439;SDS011;5776;51.814;4.510;2022-12-01T13:32:03;27.53;;;14.40;;
11439;SDS011;5776;51.814;4.510;2022-12-01T13:34:33;32.83;;;17.00;;
11439;SDS011;5776;51.814;4.510;2022-12-01T13:37:04;33.47;;;17.07;;
11439;SDS011;5776;51.814;4.510;2022-12-01T13:39:32;34.53;;;18.73;;
11439;SDS011;5776;51.814;4.510;2022-12-01T13:44:44;24.40;;;13.07;;
11439;SDS011;5776;51.814;4.510;2022-12-01T13:49:43;31.97;;;15.40;;
11439;SDS011;5776;51.814;4.510;2022-12-01T13:57:33;31.13;;;14.07;;
11439;SDS011;5776;51.814;4.510;2022-12-01T14:00:04;30.50;;;15.80;;
11439;SDS011;5776;51.814;4.510;2022-12-01T14:02:33;27.37;;;13.70;;
11439;SDS011;5776;51.814;4.510;2022-12-01T14:05:41;29.80;;;16.47;;
11439;SDS011;5776;51.814;4.510;2022-12-01T14:10:51;30.43;;;16.63;;
11439;SDS011;5776;51.814;4.510;2022-12-01T14:13:49;29.20;;;14.90;;
11439;SDS011;5776;51.814;4.510;2022-12-01T14:16:19;32.80;;;17.23;;
11439;SDS011;5776;51.814;4.510;2022-12-01T14:21:39;33.80;;;17.20;;
11439;SDS011;5776;51.814;4.510;2022-12-01T14:27:07;34.77;;;15.90;;
11439;SDS011;5776;51.814;4.510;2022-12-01T14:29:37;30.57;;;15.33;;
11439;SDS011;5776;51.814;4.510;2022-12-01T14:32:25;35.27;;;15.40;;
11439;SDS011;5776;51.814;4.510;2022-12-01T14:34:51;33.83;;;15.73;;
11439;SDS011;5776;51.814;4.510;2022-12-01T14:37:21;37.80;;;16.60;;
11439;SDS011;5776;51.814;4.510;2022-12-01T14:39:57;31.07;;;16.90;;
11439;SDS011;5776;51.814;4.510;2022-12-01T14:42:31;32.73;;;17.20;;
11439;SDS011;5776;51.814;4.510;2022-12-01T14:45:21;35.27;;;17.63;;
11439;SDS011;5776;51.814;4.510;2022-12-01T14:47:59;40.80;;;17.33;;
11439;SDS011;5776;51.814;4.510;2022-12-01T14:50:43;35.63;;;16.70;;
11439;SDS011;5776;51.814;4.510;2022-12-01T14:53:28;36.27;;;18.57;;
11439;SDS011;5776;51.814;4.510;2022-12-01T14:56:01;29.57;;;15.97;;
11439;SDS011;5776;51.814;4.510;2022-12-01T14:58:38;34.23;;;17.07;;
11439;SDS011;5776;51.814;4.510;2022-12-01T15:01:16;34.83;;;16.73;;
11439;SDS011;5776;51.814;4.510;2022-12-01T15:03:43;32.73;;;16.27;;
11439;SDS011;5776;51.814;4.510;2022-12-01T15:06:19;35.93;;;18.23;;
11439;SDS011;5776;51.814;4.510;2022-12-01T15:09:02;29.00;;;15.77;;
11439;SDS011;5776;51.814;4.510;2022-12-01T15:11:36;32.30;;;15.30;;
11439;SDS011;5776;51.814;4.510;2022-12-01T15:14:29;34.57;;;16.90;;
11439;SDS011;5776;51.814;4.510;2022-12-01T15:16:57;30.33;;;15.83;;
11439;SDS011;5776;51.814;4.510;2022-12-01T15:19:37;34.70;;;16.93;;
11439;SDS011;5776;51.814;4.510;2022-12-01T15:24:34;26.73;;;13.27;;
11439;SDS011;5776;51.814;4.510;2022-12-01T15:27:00;32.63;;;16.13;;
11439;SDS011;5776;51.814;4.510;2022-12-01T15:29:27;29.53;;;15.50;;
11439;SDS011;5776;51.814;4.510;2022-12-01T15:32:00;30.50;;;15.90;;
11439;SDS011;5776;51.814;4.510;2022-12-01T15:34:30;29.63;;;15.83;;
11439;SDS011;5776;51.814;4.510;2022-12-01T15:37:02;19.13;;;10.43;;
11439;SDS011;5776;51.814;4.510;2022-12-01T15:39:32;18.90;;;9.93;;
11439;SDS011;5776;51.814;4.510;2022-12-01T15:42:00;20.77;;;12.00;;
11439;SDS011;5776;51.814;4.510;2022-12-01T15:44:32;30.17;;;14.60;;
11439;SDS011;5776;51.814;4.510;2022-12-01T15:52:54;21.90;;;10.70;;
11439;SDS011;5776;51.814;4.510;2022-12-01T15:55:36;17.93;;;10.10;;
11439;SDS011;5776;51.814;4.510;2022-12-01T15:58:07;27.77;;;14.97;;
11439;SDS011;5776;51.814;4.510;2022-12-01T16:00:34;27.13;;;14.80;;
11439;SDS011;5776;51.814;4.510;2022-12-01T16:03:00;27.23;;;14.10;;
11439;SDS011;5776;51.814;4.510;2022-12-01T16:05:28;30.93;;;16.00;;
11439;SDS011;5776;51.814;4.510;2022-12-01T16:07:57;31.93;;;15.70;;
11439;SDS011;5776;51.814;4.510;2022-12-01T16:10:43;32.33;;;16.23;;
11439;SDS011;5776;51.814;4.510;2022-12-01T16:21:41;34.40;;;16.93;;
11439;SDS011;5776;51.814;4.510;2022-12-01T16:24:12;31.27;;;15.10;;
11439;SDS011;5776;51.814;4.510;2022-12-01T16:26:51;28.57;;;14.23;;
11439;SDS011;5776;51.814;4.510;2022-12-01T16:29:23;26.73;;;12.70;;
11439;SDS011;5776;51.814;4.510;2022-12-01T16:31:51;25.93;;;12.83;;
11439;SDS011;5776;51.814;4.510;2022-12-01T16:34:19;26.23;;;12.20;;
11439;SDS011;5776;51.814;4.510;2022-12-01T16:36:47;25.87;;;12.50;;
11439;SDS011;5776;51.814;4.510;2022-12-01T16:39:13;26.80;;;13.17;;
11439;SDS011;5776;51.814;4.510;2022-12-01T16:41:39;23.53;;;12.43;;
11439;SDS011;5776;51.814;4.510;2022-12-01T16:44:09;27.23;;;13.07;;
11439;SDS011;5776;51.814;4.510;2022-12-01T16:46:37;24.90;;;12.97;;
11439;SDS011;5776;51.814;4.510;2022-12-01T16:49:04;27.43;;;13.87;;
11439;SDS011;5776;51.814;4.510;2022-12-01T16:51:31;29.33;;;13.63;;
11439;SDS011;5776;51.814;4.510;2022-12-01T16:53:57;24.80;;;13.03;;
11439;SDS011;5776;51.814;4.510;2022-12-01T16:56:24;26.47;;;13.90;;
11439;SDS011;5776;51.814;4.510;2022-12-01T16:58:50;26.83;;;13.83;;